Time;durP1;ratioP1;P1;durP2;ratioP2;P2;SDS_P1;SDS_P2;PMS_P1;PMS_P2;Temp;Humidity;BMP_temperature;BMP_pressure;BME280_temperature;BME280_humidity;BME280_pressure;Samples;Min_cycle;Max_cycle;Signal;HPM_P1;HPM_P2
2023/06/10 00:00:07;;;;;;;43.42;39.38;;;;;;;14.34;100.00;100543.22;5010826;28;20054;-82
2023/06/10 00:02:33;;;;;;;41.55;37.42;;;;;;;14.03;100.00;100531.06;5012823;28;20054;-84
2023/06/10 00:05:00;;;;;;;41.80;37.80;;;;;;;14.42;100.00;100537.50;5013688;28;20053;-84
2023/06/10 00:07:27;;;;;;;40.50;36.60;;;;;;;14.52;100.00;100547.63;5012897;28;20092;-84
2023/06/10 00:09:55;;;;;;;41.50;37.60;;;;;;;14.44;100.00;100530.09;5010941;28;20056;-84
2023/06/10 00:12:22;;;;;;;43.33;39.03;;;;;;;14.38;100.00;100545.19;5013108;28;20468;-79
2023/06/10 00:14:50;;;;;;;44.13;39.88;;;;;;;14.25;100.00;100547.28;5013352;28;20058;-80
2023/06/10 00:17:28;;;;;;;42.33;38.42;;;;;;;14.47;100.00;100548.31;5012582;28;20465;-79
2023/06/10 00:20:04;;;;;;;44.42;40.33;;;;;;;14.32;100.00;100537.31;5012298;28;20057;-79
2023/06/10 00:22:32;;;;;;;40.60;36.60;;;;;;;14.46;100.00;100533.31;5011383;28;20499;-79
2023/06/10 00:24:58;;;;;;;43.08;39.13;;;;;;;14.06;100.00;100534.06;5011398;28;20386;-79
2023/06/10 00:27:30;;;;;;;40.42;36.53;;;;;;;14.38;100.00;100529.16;5013139;28;20610;-80
2023/06/10 00:29:57;;;;;;;43.30;39.10;;;;;;;14.23;100.00;100531.50;5010480;28;20129;-79
2023/06/10 00:32:33;;;;;;;43.15;38.95;;;;;;;14.40;100.00;100534.25;5012349;28;20046;-79
2023/06/10 00:35:00;;;;;;;44.60;40.33;;;;;;;13.79;100.00;100532.91;5011983;28;20057;-79
2023/06/10 00:37:27;;;;;;;49.95;45.20;;;;;;;14.14;100.00;100540.94;5011338;28;20726;-79
2023/06/10 00:39:56;;;;;;;49.65;45.15;;;;;;;14.19;100.00;100546.38;5011172;28;20140;-79
2023/06/10 00:42:27;;;;;;;48.78;44.20;;;;;;;14.26;100.00;100552.41;5010320;28;20415;-80
2023/06/10 00:44:55;;;;;;;47.38;43.17;;;;;;;14.22;100.00;100551.28;5011878;28;20494;-80
2023/06/10 00:47:23;;;;;;;45.80;41.67;;;;;;;14.08;100.00;100557.88;5012357;28;20049;-80
2023/06/10 00:49:52;;;;;;;45.88;41.45;;;;;;;14.11;100.00;100549.41;5008626;28;20045;-79
2023/06/10 00:52:21;;;;;;;45.15;40.97;;;;;;;14.27;100.00;100551.34;5012185;28;20042;-84
2023/06/10 00:54:50;;;;;;;43.80;39.50;;;;;;;14.17;100.00;100543.94;5012440;28;20062;-79
2023/06/10 00:57:17;;;;;;;40.88;36.97;;;;;;;14.23;100.00;100544.06;5011726;28;20520;-83
2023/06/10 00:59:49;;;;;;;41.65;38.08;;;;;;;14.12;100.00;100535.81;5013062;28;20517;-83
2023/06/10 01:02:17;;;;;;;45.40;41.40;;;;;;;14.28;100.00;100549.50;5011711;28;20058;-80
2023/06/10 01:04:47;;;;;;;41.15;37.30;;;;;;;14.13;100.00;100542.78;5011458;28;20050;-80
2023/06/10 01:07:24;;;;;;;41.80;37.70;;;;;;;14.37;100.00;100554.28;5010166;28;20056;-80
2023/06/10 01:10:29;;;;;;;43.45;39.58;;;;;;;14.43;100.00;100557.84;5007216;28;20046;-79
2023/06/10 01:13:02;;;;;;;41.95;38.08;;;;;;;14.50;100.00;100547.84;5011447;28;20054;-79
2023/06/10 01:15:30;;;;;;;41.70;38.00;;;;;;;14.51;100.00;100544.16;5012115;28;20470;-79
2023/06/10 01:17:59;;;;;;;42.03;38.33;;;;;;;14.23;100.00;100550.22;5012303;28;20136;-79
2023/06/10 01:20:27;;;;;;;47.88;43.55;;;;;;;13.77;100.00;100537.66;5012540;28;20415;-79
2023/06/10 01:22:57;;;;;;;46.20;41.80;;;;;;;14.42;100.00;100542.84;5003903;28;20181;-80
2023/06/10 01:25:27;;;;;;;46.33;42.03;;;;;;;14.31;100.00;100546.34;4992926;28;20049;-80
2023/06/10 01:28:00;;;;;;;48.20;43.63;;;;;;;14.17;100.00;100543.13;5006782;28;20494;-79
2023/06/10 01:30:30;;;;;;;46.45;41.95;;;;;;;13.87;100.00;100548.59;4997935;28;20051;-84
2023/06/10 01:33:06;;;;;;;45.38;41.08;;;;;;;13.41;100.00;100550.16;4993350;28;20054;-84
2023/06/10 01:35:33;;;;;;;47.53;43.05;;;;;;;13.61;100.00;100542.63;4993388;28;20062;-84
2023/06/10 01:38:03;;;;;;;45.60;41.25;;;;;;;13.97;100.00;100530.13;4993089;28;20434;-84
2023/06/10 01:40:33;;;;;;;46.92;42.35;;;;;;;14.12;100.00;100535.00;4998308;28;20490;-83
2023/06/10 01:43:03;;;;;;;45.45;41.35;;;;;;;14.04;100.00;100530.84;4996900;28;20050;-84
2023/06/10 01:45:30;;;;;;;47.90;43.53;;;;;;;14.16;100.00;100534.31;4992538;28;20474;-83
2023/06/10 01:47:56;;;;;;;45.17;40.78;;;;;;;14.17;100.00;100527.91;5000380;28;20133;-80
2023/06/10 01:50:29;;;;;;;43.10;38.92;;;;;;;14.10;100.00;100531.75;5011792;28;20524;-84
2023/06/10 01:52:58;;;;;;;42.45;38.45;;;;;;;14.17;100.00;100538.59;5011949;28;20521;-83
2023/06/10 01:55:26;;;;;;;45.03;40.83;;;;;;;14.05;100.00;100527.13;5010656;28;20057;-79
2023/06/10 01:57:53;;;;;;;41.83;37.55;;;;;;;14.30;100.00;100536.72;5011220;28;20061;-83
2023/06/10 02:00:49;;;;;;;44.10;39.80;;;;;;;14.25;100.00;100528.59;5007420;28;20062;-84
2023/06/10 02:03:16;;;;;;;50.17;45.53;;;;;;;13.94;100.00;100528.72;5009302;28;20049;-84
2023/06/10 02:05:43;;;;;;;41.47;37.45;;;;;;;13.93;100.00;100527.13;5010108;28;20046;-83
2023/06/10 02:08:18;;;;;;;45.65;41.30;;;;;;;14.23;100.00;100530.69;5012003;28;20057;-84
2023/06/10 02:10:46;;;;;;;47.95;43.53;;;;;;;13.88;100.00;100529.66;5010429;28;20441;-83
2023/06/10 02:13:20;;;;;;;48.17;43.58;;;;;;;14.35;100.00;100537.66;4999140;28;20454;-84
2023/06/10 02:15:46;;;;;;;48.72;44.33;;;;;;;14.46;100.00;100533.31;4992128;28;20054;-83
2023/06/10 02:18:13;;;;;;;44.40;40.00;;;;;;;14.09;100.00;100538.94;4997541;28;20054;-79
2023/06/10 02:20:40;;;;;;;47.75;43.25;;;;;;;14.02;100.00;100535.59;5000233;28;20054;-80
2023/06/10 02:23:07;;;;;;;50.90;45.95;;;;;;;13.95;100.00;100534.91;5004375;28;20088;-80
2023/06/10 02:25:55;;;;;;;46.17;41.42;;;;;;;14.17;100.00;100541.28;5000606;28;20042;-80
2023/06/10 02:28:22;;;;;;;43.58;39.30;;;;;;;14.12;100.00;100540.34;5003986;28;20049;-79
2023/06/10 02:30:49;;;;;;;43.10;38.80;;;;;;;14.51;100.00;100536.13;5025951;28;20073;-83
2023/06/10 02:33:17;;;;;;;41.40;37.30;;;;;;;14.48;100.00;100541.91;4992176;28;20046;-84
2023/06/10 02:35:46;;;;;;;38.55;34.67;;;;;;;13.72;100.00;100527.69;4992236;28;20090;-83
2023/06/10 02:38:13;;;;;;;40.40;36.47;;;;;;;14.42;100.00;100542.84;5009653;28;20045;-84
2023/06/10 02:40:57;;;;;;;38.22;34.65;;;;;;;14.46;100.00;100538.66;5010007;28;20104;-84
2023/06/10 02:43:24;;;;;;;37.45;34.03;;;;;;;14.57;100.00;100539.72;5005846;28;20049;-79
2023/06/10 02:45:51;;;;;;;38.28;34.72;;;;;;;14.63;100.00;100534.25;5010539;28;20069;-79
2023/06/10 02:48:18;;;;;;;36.85;33.35;;;;;;;14.74;100.00;100545.16;5008158;28;20461;-79
2023/06/10 02:50:45;;;;;;;39.17;35.65;;;;;;;14.30;100.00;100547.41;5008150;28;20065;-79
2023/06/10 02:53:12;;;;;;;40.25;36.30;;;;;;;14.29;100.00;100543.13;5010197;28;20053;-83
2023/06/10 02:55:44;;;;;;;40.92;37.00;;;;;;;14.42;100.00;100548.19;5010783;28;20052;-84
2023/06/10 02:58:12;;;;;;;41.38;37.33;;;;;;;13.98;100.00;100540.59;5010161;28;20434;-84
2023/06/10 03:00:40;;;;;;;42.00;38.00;;;;;;;14.60;100.00;100547.28;5007599;28;20046;-83
2023/06/10 03:03:08;;;;;;;44.08;40.00;;;;;;;14.77;100.00;100555.38;5009580;28;20053;-83
2023/06/10 03:05:35;;;;;;;41.65;37.65;;;;;;;14.40;100.00;100548.44;5009562;28;20522;-79
2023/06/10 03:08:13;;;;;;;43.88;39.88;;;;;;;14.00;100.00;100551.03;5008964;28;20056;-79
2023/06/10 03:10:39;;;;;;;45.47;41.50;;;;;;;14.36;100.00;100555.28;5007744;28;20046;-79
2023/06/10 03:13:19;;;;;;;43.53;39.65;;;;;;;14.44;100.00;100562.16;5004253;28;20057;-79
2023/06/10 03:15:46;;;;;;;43.50;39.78;;;;;;;14.63;100.00;100560.97;5007563;28;20053;-79
2023/06/10 03:18:13;;;;;;;44.83;40.05;;;;;;;14.58;100.00;100557.38;5010786;28;20092;-84
2023/06/10 03:20:40;;;;;;;42.60;39.05;;;;;;;14.46;100.00;100561.91;5010525;28;20061;-84
2023/06/10 03:23:07;;;;;;;39.47;36.17;;;;;;;14.60;100.00;100569.47;5008201;28;20045;-79
2023/06/10 03:25:34;;;;;;;40.85;37.55;;;;;;;14.80;100.00;100574.41;5007482;28;20584;-83
2023/06/10 03:28:01;;;;;;;41.90;38.10;;;;;;;15.08;100.00;100568.25;5013372;28;20046;-84
2023/06/10 03:30:33;;;;;;;39.47;36.17;;;;;;;15.19;100.00;100573.78;5014147;28;20073;-83
2023/06/10 03:33:06;;;;;;;40.75;37.05;;;;;;;14.99;100.00;100567.03;5012179;28;20054;-79
2023/06/10 03:35:34;;;;;;;38.90;35.40;;;;;;;15.17;100.00;100568.69;5012988;28;20092;-79
2023/06/10 03:38:01;;;;;;;36.85;33.58;;;;;;;14.86;100.00;100570.00;5011024;28;20057;-80
2023/06/10 03:40:30;;;;;;;37.47;34.17;;;;;;;15.03;100.00;100570.81;5002425;28;20050;-79
2023/06/10 03:42:57;;;;;;;38.17;34.67;;;;;;;15.08;100.00;100570.94;5013789;28;20137;-79
2023/06/10 03:45:24;;;;;;;38.60;35.13;;;;;;;15.28;100.00;100556.28;5001185;28;20057;-79
2023/06/10 03:47:52;;;;;;;39.45;36.13;;;;;;;15.40;100.00;100554.41;4995022;28;20105;-83
2023/06/10 03:50:23;;;;;;;37.83;34.35;;;;;;;15.38;100.00;100563.72;4994654;28;20097;-80
2023/06/10 03:52:50;;;;;;;38.13;34.83;;;;;;;15.44;100.00;100568.91;5002956;28;20053;-79
2023/06/10 03:55:17;;;;;;;45.65;41.88;;;;;;;15.60;100.00;100564.63;5012003;28;20562;-83
2023/06/10 03:57:44;;;;;;;39.78;36.22;;;;;;;15.60;100.00;100559.25;5008549;28;20062;-84
2023/06/10 04:00:12;;;;;;;39.78;36.47;;;;;;;15.89;100.00;100576.09;4995370;28;20426;-83
2023/06/10 04:02:45;;;;;;;38.03;34.58;;;;;;;16.00;100.00;100569.81;5011421;28;20062;-79
2023/06/10 04:05:13;;;;;;;36.28;32.78;;;;;;;15.97;100.00;100580.22;4999165;28;20046;-79
2023/06/10 04:07:42;;;;;;;38.28;35.08;;;;;;;15.93;100.00;100582.56;5003513;28;20506;-79
2023/06/10 04:10:19;;;;;;;36.95;33.42;;;;;;;16.02;100.00;100580.31;5013277;28;20053;-80
2023/06/10 04:12:55;;;;;;;36.08;33.08;;;;;;;16.36;100.00;100575.69;5009685;28;20050;-80
2023/06/10 04:15:23;;;;;;;36.30;33.05;;;;;;;16.34;100.00;100567.09;5013089;28;20049;-79
2023/06/10 04:17:50;;;;;;;36.40;33.22;;;;;;;15.99;100.00;100575.44;5010779;28;20057;-79
2023/06/10 04:20:18;;;;;;;37.03;33.92;;;;;;;16.26;100.00;100575.56;5012523;28;20137;-79
2023/06/10 04:22:45;;;;;;;37.88;34.47;;;;;;;16.44;100.00;100583.31;5013025;28;20510;-83
2023/06/10 04:25:12;;;;;;;37.55;34.35;;;;;;;16.30;100.00;100583.91;5013498;28;20053;-84
2023/06/10 04:27:42;;;;;;;39.40;36.00;;;;;;;16.64;100.00;100580.09;5013112;28;20128;-84
2023/06/10 04:30:10;;;;;;;39.25;35.58;;;;;;;16.63;100.00;100581.13;5013901;28;20057;-79
2023/06/10 04:32:36;;;;;;;34.90;32.00;;;;;;;16.68;100.00;100583.88;5012954;28;20116;-79
2023/06/10 04:35:03;;;;;;;38.88;35.55;;;;;;;16.75;100.00;100583.69;5011575;28;20053;-84
2023/06/10 04:37:32;;;;;;;37.33;34.35;;;;;;;16.92;100.00;100589.84;5011218;28;20050;-84
2023/06/10 04:39:59;;;;;;;35.85;32.45;;;;;;;17.01;100.00;100584.84;5012733;28;20506;-84
2023/06/10 04:42:25;;;;;;;33.80;30.90;;;;;;;17.06;100.00;100573.34;5011138;28;20096;-84
2023/06/10 04:44:52;;;;;;;31.90;29.30;;;;;;;17.12;100.00;100566.97;5009594;28;20041;-83
2023/06/10 04:47:20;;;;;;;33.53;30.63;;;;;;;17.26;100.00;100570.06;5011966;28;20050;-83
2023/06/10 04:49:47;;;;;;;36.95;33.25;;;;;;;17.36;100.00;100568.28;5008676;28;20056;-83
2023/06/10 04:52:13;;;;;;;39.20;35.90;;;;;;;17.47;100.00;100579.13;5010171;28;20113;-80
2023/06/10 04:54:42;;;;;;;37.40;34.08;;;;;;;17.56;100.00;100566.84;5012365;28;20518;-79
2023/06/10 04:57:21;;;;;;;35.25;32.10;;;;;;;17.66;100.00;100574.97;5012286;28;20042;-79
2023/06/10 04:59:48;;;;;;;35.83;32.67;;;;;;;17.71;100.00;100566.16;5011303;28;20046;-80
2023/06/10 05:02:16;;;;;;;33.67;30.77;;;;;;;18.02;100.00;100567.22;5011454;28;20050;-84
2023/06/10 05:04:43;;;;;;;32.42;29.70;;;;;;;18.16;100.00;100568.38;5011255;28;20050;-84
2023/06/10 05:07:12;;;;;;;30.02;27.52;;;;;;;17.95;100.00;100566.63;5011526;28;20103;-84
2023/06/10 05:09:39;;;;;;;30.25;27.52;;;;;;;18.05;100.00;100561.31;5010139;28;20050;-84
2023/06/10 05:12:14;;;;;;;33.03;29.65;;;;;;;18.34;100.00;100566.34;5009885;28;20050;-84
2023/06/10 05:14:53;;;;;;;34.50;31.15;;;;;;;18.34;100.00;100566.34;5009289;28;20053;-84
2023/06/10 05:17:20;;;;;;;32.88;30.00;;;;;;;18.57;100.00;100573.16;5009287;28;20057;-84
2023/06/10 05:19:47;;;;;;;31.48;28.73;;;;;;;18.65;100.00;100572.66;5011584;28;20054;-84
2023/06/10 05:22:16;;;;;;;30.85;27.85;;;;;;;18.56;100.00;100564.28;5010968;28;20053;-79
2023/06/10 05:24:43;;;;;;;31.92;29.13;;;;;;;19.11;100.00;100564.75;5010774;28;20060;-80
2023/06/10 05:27:10;;;;;;;33.45;30.52;;;;;;;19.09;100.00;100569.59;5009606;28;20124;-80
2023/06/10 05:29:46;;;;;;;33.75;30.80;;;;;;;19.33;100.00;100565.31;5009544;28;20053;-79
2023/06/10 05:32:13;;;;;;;29.90;27.55;;;;;;;19.52;100.00;100568.31;5011181;28;20046;-79
2023/06/10 05:34:40;;;;;;;30.13;27.42;;;;;;;19.01;100.00;100564.75;5011276;28;20429;-79
2023/06/10 05:37:07;;;;;;;29.75;27.02;;;;;;;19.50;100.00;100578.53;5011193;28;20056;-80
2023/06/10 05:39:37;;;;;;;29.10;26.25;;;;;;;19.43;100.00;100572.63;5009937;28;20494;-80
2023/06/10 05:42:04;;;;;;;29.13;26.63;;;;;;;19.66;100.00;100582.06;5007908;28;20049;-84
2023/06/10 05:44:31;;;;;;;29.08;26.80;;;;;;;19.72;100.00;100572.09;5009267;28;20717;-79
2023/06/10 05:46:59;;;;;;;31.30;28.67;;;;;;;20.06;100.00;100565.06;5009273;28;20822;-80
2023/06/10 05:49:38;;;;;;;28.38;25.67;;;;;;;20.31;100.00;100566.91;5008362;28;20430;-80
2023/06/10 05:52:16;;;;;;;29.80;27.17;;;;;;;20.31;100.00;100564.19;5010877;28;20096;-79
2023/06/10 05:54:45;;;;;;;30.10;27.40;;;;;;;20.68;100.00;100560.31;5009901;28;20414;-80
2023/06/10 05:57:12;;;;;;;27.90;25.38;;;;;;;20.78;100.00;100571.03;5010216;28;20049;-80
2023/06/10 05:59:39;;;;;;;29.98;27.35;;;;;;;20.12;100.00;100572.06;5010223;28;20048;-80
2023/06/10 06:02:08;;;;;;;29.48;26.95;;;;;;;20.51;100.00;100567.91;5009779;28;20053;-80
2023/06/10 06:04:35;;;;;;;27.30;24.90;;;;;;;20.66;100.00;100570.56;5010125;28;20046;-80
2023/06/10 06:07:13;;;;;;;27.33;25.02;;;;;;;21.07;100.00;100569.56;5007899;28;20045;-80
2023/06/10 06:09:40;;;;;;;24.38;22.17;;;;;;;20.85;100.00;100568.06;5010115;28;20046;-80
2023/06/10 06:12:08;;;;;;;25.63;23.27;;;;;;;20.85;100.00;100578.84;5008309;28;20046;-80
2023/06/10 06:14:40;;;;;;;25.02;22.92;;;;;;;21.40;100.00;100579.63;5007875;28;20148;-80
2023/06/10 06:17:08;;;;;;;24.52;22.30;;;;;;;21.24;100.00;100578.06;5010797;28;20054;-80
2023/06/10 06:19:37;;;;;;;25.67;23.60;;;;;;;21.08;100.00;100576.56;5009579;28;20056;-80
2023/06/10 06:22:13;;;;;;;27.05;24.85;;;;;;;21.25;100.00;100575.09;5009347;28;20053;-80
2023/06/10 06:24:40;;;;;;;23.23;21.33;;;;;;;21.22;100.00;100583.78;5009410;28;20054;-80
2023/06/10 06:27:07;;;;;;;23.58;21.55;;;;;;;21.16;100.00;100584.09;5006508;28;20049;-80
2023/06/10 06:29:43;;;;;;;22.92;20.92;;;;;;;21.35;100.00;100573.41;5010205;28;20050;-80
2023/06/10 06:32:11;;;;;;;21.70;19.65;;;;;;;21.31;100.00;100572.38;5011201;28;20050;-80
2023/06/10 06:34:38;;;;;;;24.23;22.08;;;;;;;21.45;100.00;100574.19;5010667;28;20046;-80
2023/06/10 06:37:06;;;;;;;28.98;22.08;;;;;;;21.55;100.00;100575.22;5006286;28;20056;-80
2023/06/10 06:39:32;;;;;;;21.80;19.73;;;;;;;21.30;100.00;100570.75;5002083;28;20077;-80
2023/06/10 06:41:59;;;;;;;22.25;20.38;;;;;;;21.45;100.00;100566.09;4995568;28;20521;-80
2023/06/10 06:44:26;;;;;;;23.52;21.55;;;;;;;21.02;100.00;100573.09;5005511;28;20050;-80
2023/06/10 06:46:54;;;;;;;24.48;22.38;;;;;;;20.92;100.00;100563.16;5007223;28;20043;-85
2023/06/10 06:49:22;;;;;;;23.77;21.63;;;;;;;20.85;100.00;100564.53;5005625;28;20457;-85
2023/06/10 06:51:49;;;;;;;23.05;20.85;;;;;;;21.49;100.00;100567.13;5007387;28;20050;-85
2023/06/10 06:54:16;;;;;;;24.02;22.10;;;;;;;21.55;100.00;100567.09;5005154;28;20406;-85
2023/06/10 06:56:43;;;;;;;22.85;21.00;;;;;;;21.60;100.00;100559.72;5004982;28;20149;-85
2023/06/10 06:59:13;;;;;;;22.70;20.40;;;;;;;21.81;100.00;100556.84;5007210;28;20068;-85
2023/06/10 07:01:40;;;;;;;29.33;21.98;;;;;;;21.47;100.00;100561.19;5006669;28;20088;-85
2023/06/10 07:04:22;;;;;;;26.02;21.65;;;;;;;21.78;100.00;100550.13;5010302;28;20513;-85
2023/06/10 07:06:49;;;;;;;22.92;21.13;;;;;;;21.81;100.00;100549.53;5010568;28;20054;-85
2023/06/10 07:09:28;;;;;;;24.38;22.17;;;;;;;21.76;100.00;100551.53;5008847;28;20042;-85
2023/06/10 07:11:55;;;;;;;24.35;22.35;;;;;;;21.86;100.00;100556.81;5010580;28;20430;-85
2023/06/10 07:14:22;;;;;;;23.02;21.02;;;;;;;21.88;100.00;100551.94;5008515;28;20050;-84
2023/06/10 07:16:51;;;;;;;23.58;21.08;;;;;;;21.90;100.00;100550.53;5009730;28;20042;-84
2023/06/10 07:19:28;;;;;;;23.20;21.08;;;;;;;21.93;100.00;100555.38;5008511;28;20521;-84
2023/06/10 07:21:55;;;;;;;23.73;21.27;;;;;;;21.64;100.00;100562.69;5010386;28;20042;-85
2023/06/10 07:24:29;;;;;;;23.90;21.83;;;;;;;21.76;100.00;100554.22;5010283;28;20050;-85
2023/06/10 07:27:07;;;;;;;23.42;21.42;;;;;;;21.64;100.00;100563.50;5010358;28;20046;-85
2023/06/10 07:29:35;;;;;;;24.63;22.50;;;;;;;22.14;100.00;100555.97;5006779;28;20505;-85
2023/06/10 07:32:03;;;;;;;24.33;22.23;;;;;;;22.03;100.00;100551.78;5008777;28;20528;-80
2023/06/10 07:34:31;;;;;;;25.98;23.65;;;;;;;21.86;100.00;100559.53;5009865;28;20551;-80
2023/06/10 07:36:58;;;;;;;23.52;21.38;;;;;;;21.81;100.00;100565.75;5010347;28;20054;-81
2023/06/10 07:39:27;;;;;;;23.60;21.48;;;;;;;21.99;100.00;100560.75;4994607;28;20101;-80
2023/06/10 07:41:56;;;;;;;25.13;22.92;;;;;;;22.30;100.00;100556.66;4994907;28;20426;-80
2023/06/10 07:44:30;;;;;;;25.40;22.98;;;;;;;22.35;100.00;100556.59;5001219;28;20108;-81
2023/06/10 07:46:59;;;;;;;26.65;24.05;;;;;;;22.27;100.00;100561.81;5001820;28;20049;-79
2023/06/10 07:49:32;;;;;;;26.13;23.63;;;;;;;22.02;100.00;100555.56;5009315;28;20096;-78
2023/06/10 07:52:08;;;;;;;25.05;22.88;;;;;;;22.62;100.00;100561.41;4996813;28;20113;-79
2023/06/10 07:54:41;;;;;;;25.15;22.77;;;;;;;22.99;100.00;100550.94;5005600;28;20053;-79
2023/06/10 07:57:08;;;;;;;23.88;21.92;;;;;;;22.26;100.00;100549.41;4999954;28;20050;-79
2023/06/10 07:59:36;;;;;;;25.20;22.98;;;;;;;23.03;100.00;100557.38;5007370;28;20437;-80
2023/06/10 08:02:22;;;;;;;24.27;21.90;;;;;;;22.75;100.00;100550.94;5002477;28;20058;-79
2023/06/10 08:04:50;;;;;;;25.23;22.70;;;;;;;22.72;100.00;100546.91;5009562;28;20050;-80
2023/06/10 08:07:18;;;;;;;24.98;22.77;;;;;;;22.94;100.00;100559.13;5010043;28;20073;-80
2023/06/10 08:09:44;;;;;;;25.48;23.27;;;;;;;22.53;100.00;100549.59;5009297;28;20105;-79
2023/06/10 08:12:13;;;;;;;23.92;21.75;;;;;;;23.20;100.00;100554.16;5010613;28;20045;-79
2023/06/10 08:14:40;;;;;;;25.73;23.40;;;;;;;22.81;100.00;100549.78;5007692;28;20046;-86
2023/06/10 08:17:07;;;;;;;24.88;22.63;;;;;;;23.15;100.00;100556.91;5012234;28;20049;-86
2023/06/10 08:19:37;;;;;;;25.10;22.73;;;;;;;23.99;100.00;100551.47;5012450;28;20042;-84
2023/06/10 08:22:06;;;;;;;24.38;21.67;;;;;;;23.77;100.00;100547.53;5013500;28;20046;-86
2023/06/10 08:24:33;;;;;;;24.63;22.55;;;;;;;23.34;100.00;100551.50;5009685;28;20050;-88
2023/06/10 08:27:04;;;;;;;24.27;22.08;;;;;;;22.80;100.00;100542.78;5005264;28;20060;-87
2023/06/10 08:29:31;;;;;;;24.27;22.20;;;;;;;23.48;100.00;100546.91;5007864;28;20108;-86
2023/06/10 08:31:59;;;;;;;23.98;21.85;;;;;;;23.74;100.00;100544.63;5009170;28;20511;-86
2023/06/10 08:34:26;;;;;;;24.80;22.70;;;;;;;23.48;100.00;100547.75;4999753;28;20085;-86
2023/06/10 08:36:55;;;;;;;23.70;21.67;;;;;;;23.29;100.00;100542.34;5001954;28;20046;-86
2023/06/10 08:39:23;;;;;;;24.80;22.42;;;;;;;22.83;100.00;100545.69;5013312;28;20061;-87
2023/06/10 08:42:01;;;;;;;25.80;23.50;;;;;;;23.14;100.00;100544.47;5011164;28;20054;-79
2023/06/10 08:44:30;;;;;;;26.55;23.90;;;;;;;22.93;100.00;100549.34;4994297;28;20430;-79
2023/06/10 08:47:00;;;;;;;24.98;22.77;;;;;;;23.25;100.00;100544.03;5009256;28;20045;-79
2023/06/10 08:49:30;;;;;;;25.25;22.83;;;;;;;22.77;100.00;100546.88;5011010;28;20046;-79
2023/06/10 08:52:03;;;;;;;23.27;21.20;;;;;;;22.73;100.00;100536.94;5012545;28;20045;-87
2023/06/10 08:54:34;;;;;;;23.42;21.38;;;;;;;22.95;100.00;100537.19;5010129;28;20052;-86
2023/06/10 08:57:05;;;;;;;23.42;21.27;;;;;;;22.80;100.00;100538.16;5013227;28;20505;-88
2023/06/10 08:59:33;;;;;;;23.17;20.88;;;;;;;22.99;100.00;100543.59;5012933;28;20129;-86
2023/06/10 09:02:00;;;;;;;22.67;20.50;;;;;;;22.98;100.00;100538.50;5007052;28;20060;-87
2023/06/10 09:04:31;;;;;;;24.77;22.50;;;;;;;23.12;100.00;100531.25;5012878;28;20069;-86
2023/06/10 09:07:00;;;;;;;25.05;22.85;;;;;;;23.32;100.00;100530.91;5013345;28;20045;-86
2023/06/10 09:09:31;;;;;;;27.10;24.80;;;;;;;22.93;100.00;100531.19;4998688;28;20052;-80
2023/06/10 09:11:58;;;;;;;25.77;23.48;;;;;;;23.49;100.00;100527.66;4993808;28;20512;-79
2023/06/10 09:14:25;;;;;;;27.27;24.92;;;;;;;23.50;100.00;100531.19;4997060;28;20065;-79
2023/06/10 09:16:51;;;;;;;25.85;23.33;;;;;;;23.84;100.00;100521.94;4997753;28;20053;-80
2023/06/10 09:19:21;;;;;;;26.75;24.35;;;;;;;24.36;100.00;100520.66;5004332;28;20528;-80
2023/06/10 09:21:48;;;;;;;27.00;24.30;;;;;;;24.50;100.00;100515.22;4995829;28;20166;-79
2023/06/10 09:24:15;;;;;;;25.20;22.70;;;;;;;24.87;100.00;100516.06;5011451;28;20060;-80
2023/06/10 09:26:45;;;;;;;26.60;23.85;;;;;;;24.55;100.00;100517.06;4997374;28;20057;-80
2023/06/10 09:29:19;;;;;;;26.05;23.58;;;;;;;24.32;100.00;100508.78;4997822;28;20058;-80
2023/06/10 09:31:46;;;;;;;26.05;23.67;;;;;;;24.07;100.00;100509.31;5003345;28;20526;-80
2023/06/10 09:34:16;;;;;;;26.35;23.95;;;;;;;24.32;100.00;100510.69;5007544;28;20054;-79
2023/06/10 09:36:44;;;;;;;25.80;23.50;;;;;;;24.22;100.00;100500.88;5009959;28;20053;-80
2023/06/10 09:39:16;;;;;;;25.92;23.10;;;;;;;25.01;100.00;100505.16;5011484;28;20104;-79
2023/06/10 09:41:46;;;;;;;24.83;22.52;;;;;;;25.22;100.00;100505.50;5008928;28;20128;-79
2023/06/10 09:44:15;;;;;;;25.33;22.98;;;;;;;25.50;100.00;100498.78;5007855;28;20041;-80
2023/06/10 09:46:42;;;;;;;25.80;23.40;;;;;;;25.32;100.00;100503.31;5009689;28;20062;-80
2023/06/10 09:49:11;;;;;;;25.30;23.00;;;;;;;26.09;100.00;100490.44;5010905;28;20049;-80
2023/06/10 09:51:38;;;;;;;24.67;22.05;;;;;;;26.61;100.00;100485.13;5008706;28;20050;-79
2023/06/10 09:54:05;;;;;;;25.48;23.25;;;;;;;26.47;100.00;100495.34;5011267;28;20046;-79
2023/06/10 09:56:36;;;;;;;25.30;22.98;;;;;;;25.54;100.00;100499.00;5010116;28;20052;-80
2023/06/10 09:59:10;;;;;;;23.98;21.63;;;;;;;26.03;100.00;100491.72;5007390;28;20054;-79
2023/06/10 10:01:43;;;;;;;22.25;20.08;;;;;;;26.36;100.00;100481.25;5006472;28;20557;-79
2023/06/10 10:04:25;;;;;;;23.85;21.45;;;;;;;27.00;100.00;100488.03;5010979;28;20042;-80
2023/06/10 10:06:59;;;;;;;22.60;20.70;;;;;;;26.63;100.00;100476.66;5008085;28;20053;-80
2023/06/10 10:09:34;;;;;;;23.00;20.90;;;;;;;27.84;100.00;100483.88;5008970;28;20415;-79
2023/06/10 10:12:15;;;;;;;22.30;20.17;;;;;;;28.00;100.00;100476.72;5008978;28;20049;-80
2023/06/10 10:14:47;;;;;;;24.05;21.13;;;;;;;27.53;100.00;100479.44;5010384;28;20070;-79
2023/06/10 10:17:16;;;;;;;22.95;20.70;;;;;;;27.78;100.00;100483.25;5008761;28;20063;-80
2023/06/10 10:19:49;;;;;;;22.23;20.38;;;;;;;27.90;100.00;100479.00;5007309;28;20053;-80
2023/06/10 10:22:21;;;;;;;22.83;20.85;;;;;;;27.40;100.00;100480.44;5004510;28;20042;-80
2023/06/10 10:24:51;;;;;;;23.05;21.00;;;;;;;27.58;100.00;100475.75;5002624;28;20050;-80
2023/06/10 10:27:29;;;;;;;22.08;20.27;;;;;;;27.80;100.00;100480.97;5011321;28;20133;-80
2023/06/10 10:29:59;;;;;;;22.67;20.48;;;;;;;26.75;100.00;100467.81;4998144;28;20042;-80
2023/06/10 10:32:33;;;;;;;23.67;21.60;;;;;;;28.16;100.00;100470.69;4993864;28;20058;-79
2023/06/10 10:35:08;;;;;;;23.65;21.55;;;;;;;28.41;100.00;100463.50;5009426;28;20057;-80
2023/06/10 10:37:36;;;;;;;23.92;21.73;;;;;;;27.25;100.00;100462.69;5006535;28;20061;-80
2023/06/10 10:40:16;;;;;;;24.48;22.58;;;;;;;27.92;100.00;100446.75;4995405;28;20569;-86
2023/06/10 10:42:44;;;;;;;27.15;24.60;;;;;;;27.18;100.00;100457.72;5006923;28;20057;-80
2023/06/10 10:45:12;;;;;;;23.83;21.70;;;;;;;27.94;100.00;100452.69;5004108;28;20061;-80
2023/06/10 10:48:04;;;;;;;25.67;23.60;;;;;;;27.22;100.00;100449.69;5008148;28;20046;-80
2023/06/10 10:50:31;;;;;;;23.25;21.05;;;;;;;28.00;100.00;100438.50;5010993;28;20528;-85
2023/06/10 10:53:01;;;;;;;24.08;22.13;;;;;;;27.47;97.31;100433.59;5009934;28;20056;-87
2023/06/10 10:55:28;;;;;;;23.42;21.08;;;;;;;28.13;100.00;100433.13;5008218;28;20045;-85
2023/06/10 10:57:57;;;;;;;23.30;21.20;;;;;;;28.57;100.00;100433.66;5004619;28;20064;-85
2023/06/10 11:00:33;;;;;;;22.45;20.17;;;;;;;27.59;100.00;100437.22;5010776;28;20053;-79
2023/06/10 11:03:06;;;;;;;22.35;20.38;;;;;;;26.76;100.00;100434.03;5009191;28;20054;-79
2023/06/10 11:05:39;;;;;;;22.58;20.48;;;;;;;27.77;99.47;100428.97;4994311;28;20054;-88
2023/06/10 11:08:07;;;;;;;22.25;20.10;;;;;;;28.08;99.66;100428.69;4991962;28;20046;-86
2023/06/10 11:10:37;;;;;;;22.33;20.00;;;;;;;27.71;100.00;100427.56;5001870;28;20132;-86
2023/06/10 11:13:09;;;;;;;22.73;20.38;;;;;;;28.32;100.00;100417.09;5000672;28;20054;-86